Time;durP1;ratioP1;P1;durP2;ratioP2;P2;SDS_P1;SDS_P2;PMS_P1;PMS_P2;Temp;Humidity;BMP_temperature;BMP_pressure;BME280_temperature;BME280_humidity;BME280_pressure;Samples;Min_cycle;Max_cycle;Signal;HPM_P1;HPM_P2
2022/11/23 00:00:29;;;;;;;25.45;9.60;;;;;;;6.60;100.00;99416.28;5102087;28;20028;-70
2022/11/23 00:02:58;;;;;;;25.67;9.10;;;;;;;6.58;100.00;99420.66;5102150;28;20066;-72
2022/11/23 00:05:26;;;;;;;25.70;9.00;;;;;;;6.54;100.00;99414.53;5103549;28;20173;-69
2022/11/23 00:07:51;;;;;;;24.50;8.95;;;;;;;6.56;100.00;99418.03;5102666;28;20081;-70
2022/11/23 00:10:17;;;;;;;25.80;8.40;;;;;;;6.61;100.00;99421.53;5104416;28;20408;-69
2022/11/23 00:12:42;;;;;;;24.77;8.13;;;;;;;6.64;100.00;99418.03;5100181;28;20056;-69
2022/11/23 00:15:11;;;;;;;23.40;7.80;;;;;;;6.63;100.00;99422.38;5105203;28;20019;-73
2022/11/23 00:17:36;;;;;;;25.23;7.70;;;;;;;6.62;100.00;99422.41;5101709;28;20028;-72
2022/11/23 00:20:03;;;;;;;26.10;8.23;;;;;;;6.63;100.00;99422.38;5103816;28;20455;-75
2022/11/23 00:22:28;;;;;;;22.63;7.30;;;;;;;6.61;100.00;99426.78;5102866;28;20023;-71
2022/11/23 00:24:53;;;;;;;25.30;7.10;;;;;;;6.62;100.00;99425.88;5102491;28;20077;-77
2022/11/23 00:27:19;;;;;;;25.23;7.43;;;;;;;6.62;100.00;99430.28;5104318;28;20040;-75
2022/11/23 00:29:44;;;;;;;23.77;6.93;;;;;;;6.60;100.00;99437.28;5101311;28;20021;-75
2022/11/23 00:32:09;;;;;;;22.00;6.63;;;;;;;6.64;100.00;99441.66;5104695;28;20091;-76
2022/11/23 00:34:34;;;;;;;24.25;6.72;;;;;;;6.66;100.00;99437.28;5101667;28;20558;-70
2022/11/23 00:37:00;;;;;;;25.08;6.65;;;;;;;6.66;100.00;99433.78;5103418;28;20062;-79
2022/11/23 00:39:25;;;;;;;23.55;6.38;;;;;;;6.70;100.00;99448.63;5102991;28;20107;-75
2022/11/23 00:41:50;;;;;;;23.50;5.85;;;;;;;6.70;100.00;99441.66;5101897;28;20493;-74
2022/11/23 00:44:16;;;;;;;25.33;6.53;;;;;;;6.69;100.00;99444.28;5104398;28;20028;-72
2022/11/23 00:46:41;;;;;;;23.58;6.13;;;;;;;6.71;100.00;99453.00;5101003;28;20032;-67
2022/11/23 00:49:06;;;;;;;22.25;5.32;;;;;;;6.76;100.00;99444.25;5102328;28;20035;-68
2022/11/23 00:51:34;;;;;;;22.80;5.38;;;;;;;6.73;100.00;99446.03;5103776;28;20031;-66
2022/11/23 00:54:01;;;;;;;21.95;5.30;;;;;;;6.73;100.00;99441.63;5105619;28;20095;-68
2022/11/23 00:56:28;;;;;;;20.90;5.07;;;;;;;6.76;100.00;99443.38;5107608;28;20431;-67
2022/11/23 00:58:55;;;;;;;22.67;5.18;;;;;;;6.74;100.00;99447.75;5107107;28;20024;-67
2022/11/23 01:01:23;;;;;;;20.73;5.43;;;;;;;6.72;100.00;99445.13;5106205;28;20081;-67
2022/11/23 01:03:52;;;;;;;23.85;5.40;;;;;;;6.71;100.00;99453.88;5105914;28;20628;-67
2022/11/23 01:06:23;;;;;;;21.83;5.55;;;;;;;6.70;100.00;99453.88;5106746;28;20123;-70
2022/11/23 01:08:51;;;;;;;23.65;5.03;;;;;;;6.71;100.00;99445.13;5106344;27;20466;-67
2022/11/23 01:11:17;;;;;;;20.52;5.30;;;;;;;6.72;100.00;99446.91;5106260;28;20031;-68
2022/11/23 01:13:43;;;;;;;21.85;5.10;;;;;;;6.73;100.00;99451.28;5107603;28;20386;-67
2022/11/23 01:16:13;;;;;;;22.00;4.78;;;;;;;6.75;100.00;99454.75;5105376;28;20028;-68
2022/11/23 01:18:39;;;;;;;23.52;4.85;;;;;;;6.73;100.00;99449.50;5107519;28;20023;-69
2022/11/23 01:21:04;;;;;;;21.92;5.00;;;;;;;6.75;100.00;99455.63;5104648;28;20115;-70
2022/11/23 01:23:30;;;;;;;22.77;5.03;;;;;;;6.71;100.00;99447.75;5107984;28;20035;-67
2022/11/23 01:25:55;;;;;;;20.70;4.95;;;;;;;6.69;100.00;99460.03;5105122;28;20383;-67
2022/11/23 01:28:21;;;;;;;21.67;5.25;;;;;;;6.68;100.00;99459.13;5106850;28;20039;-67
2022/11/23 01:30:46;;;;;;;20.15;4.72;;;;;;;6.70;100.00;99456.50;5106524;28;20441;-67
2022/11/23 01:33:12;;;;;;;20.60;4.90;;;;;;;6.73;100.00;99461.78;5105209;28;20043;-67
2022/11/23 01:35:38;;;;;;;21.65;4.72;;;;;;;6.68;100.00;99464.38;5107712;28;20424;-67
2022/11/23 01:38:04;;;;;;;21.80;4.97;;;;;;;6.69;100.00;99468.78;5104459;28;20036;-67
2022/11/23 01:40:30;;;;;;;21.40;5.00;;;;;;;6.70;100.00;99464.38;5107542;28;20036;-67
2022/11/23 01:42:59;;;;;;;22.02;4.60;;;;;;;6.73;100.00;99480.16;5105291;28;20505;-67
2022/11/23 01:45:40;;;;;;;22.00;4.75;;;;;;;6.77;100.00;99479.25;5106810;28;20455;-67
2022/11/23 01:48:17;;;;;;;21.13;4.55;;;;;;;6.74;100.00;99474.00;5100975;28;20103;-68
2022/11/23 01:50:45;;;;;;;20.70;4.20;;;;;;;6.76;100.00;99482.78;5104621;28;20416;-67
2022/11/23 01:53:11;;;;;;;21.08;4.60;;;;;;;6.77;100.00;99476.63;5105299;28;20024;-67
2022/11/23 01:55:37;;;;;;;20.17;4.50;;;;;;;6.77;100.00;99476.63;5106844;28;20081;-67
2022/11/23 01:58:08;;;;;;;21.83;4.30;;;;;;;6.75;100.00;99481.88;5103903;28;20471;-67
2022/11/23 02:00:33;;;;;;;23.35;4.40;;;;;;;6.75;100.00;99478.41;5107290;27;20051;-68
2022/11/23 02:03:00;;;;;;;20.83;4.40;;;;;;;6.79;100.00;99480.16;5103278;28;20075;-69
2022/11/23 02:05:37;;;;;;;19.55;4.18;;;;;;;6.80;100.00;99485.41;5107327;28;20381;-70
2022/11/23 02:08:03;;;;;;;20.00;3.97;;;;;;;6.83;100.00;99488.88;5101146;28;20072;-67
2022/11/23 02:10:30;;;;;;;21.70;4.45;;;;;;;6.82;100.00;99485.41;5107216;28;20046;-67
2022/11/23 02:13:00;;;;;;;21.33;4.15;;;;;;;6.80;100.00;99490.66;5099699;28;20021;-67
2022/11/23 02:15:26;;;;;;;19.92;4.38;;;;;;;6.79;100.00;99495.91;5098504;28;20020;-67
2022/11/23 02:17:51;;;;;;;22.00;4.55;;;;;;;6.79;100.00;99494.16;5106817;28;20382;-68
2022/11/23 02:20:17;;;;;;;20.05;4.05;;;;;;;6.78;100.00;99491.53;5104718;28;20027;-68
2022/11/23 02:23:10;;;;;;;22.55;4.30;;;;;;;6.78;100.00;99492.38;5105246;28;20081;-67
2022/11/23 02:25:44;;;;;;;21.25;4.60;;;;;;;6.79;100.00;99496.78;5069019;28;20122;-69
2022/11/23 02:28:38;;;;;;;21.08;4.32;;;;;;;6.87;100.00;99499.38;5105325;28;20073;-67
2022/11/23 02:31:04;;;;;;;21.02;4.15;;;;;;;6.83;100.00;99504.66;5099749;28;20028;-68
2022/11/23 02:33:29;;;;;;;19.52;4.05;;;;;;;6.85;100.00;99502.91;5106866;27;20031;-69
2022/11/23 02:35:58;;;;;;;20.05;4.35;;;;;;;6.86;100.00;99496.75;5103050;28;20020;-67
2022/11/23 02:38:31;;;;;;;20.65;4.10;;;;;;;6.83;100.00;99504.66;5106756;28;20024;-67
2022/11/23 02:40:57;;;;;;;23.15;4.57;;;;;;;6.87;100.00;99506.41;5098130;28;20527;-71
2022/11/23 02:43:23;;;;;;;20.70;4.40;;;;;;;6.88;100.00;99498.50;5106461;28;20028;-70
2022/11/23 02:46:03;;;;;;;21.63;4.45;;;;;;;6.84;100.00;99509.03;5102983;28;20417;-68
2022/11/23 02:48:28;;;;;;;21.20;4.70;;;;;;;6.84;100.00;99502.00;5101568;28;20054;-67
2022/11/23 02:50:53;;;;;;;20.67;4.32;;;;;;;6.87;100.00;99502.00;5105831;28;20490;-66
2022/11/23 02:53:19;;;;;;;20.58;4.32;;;;;;;6.87;100.00;99511.66;5102979;28;20040;-67
2022/11/23 02:55:44;;;;;;;23.48;4.15;;;;;;;6.87;100.00;99509.88;5106327;28;20020;-67
2022/11/23 02:58:10;;;;;;;22.33;4.80;;;;;;;6.86;100.00;99502.91;5101995;28;20391;-71
2022/11/23 03:00:36;;;;;;;20.27;4.72;;;;;;;6.85;100.00;99509.03;5105458;28;20039;-67
2022/11/23 03:03:02;;;;;;;20.75;4.55;;;;;;;6.82;100.00;99498.53;5103815;28;20044;-68
2022/11/23 03:05:28;;;;;;;21.88;4.85;;;;;;;6.82;100.00;99514.28;5102969;28;20034;-69
2022/11/23 03:07:53;;;;;;;20.10;4.50;;;;;;;6.80;100.00;99505.50;5105224;28;20023;-72
2022/11/23 03:10:19;;;;;;;21.05;4.45;;;;;;;6.84;100.00;99512.53;5102513;28;20047;-72
2022/11/23 03:12:44;;;;;;;21.92;4.75;;;;;;;6.83;100.00;99508.16;5106131;28;20030;-69
2022/11/23 03:15:10;;;;;;;22.00;4.72;;;;;;;6.88;100.00;99516.03;5101169;28;20036;-74
2022/11/23 03:17:35;;;;;;;22.98;4.60;;;;;;;6.88;100.00;99509.00;5105308;28;20047;-72
2022/11/23 03:20:01;;;;;;;20.02;4.35;;;;;;;6.84;100.00;99514.28;5103796;28;20408;-72
2022/11/23 03:22:26;;;;;;;21.45;4.10;;;;;;;6.92;100.00;99512.53;5103495;28;20082;-74
2022/11/23 03:24:52;;;;;;;21.70;4.53;;;;;;;6.93;100.00;99511.63;5104011;28;20034;-73
2022/11/23 03:27:17;;;;;;;22.60;4.45;;;;;;;6.91;100.00;99519.50;5102178;28;20502;-71
2022/11/23 03:29:43;;;;;;;23.85;4.32;;;;;;;6.82;100.00;99526.56;5097823;28;20062;-71
2022/11/23 03:32:08;;;;;;;19.48;4.13;;;;;;;6.84;100.00;99511.66;5105343;28;20019;-70
2022/11/23 03:34:33;;;;;;;20.85;4.18;;;;;;;6.80;100.00;99510.78;5103330;28;20031;-67
2022/11/23 03:36:59;;;;;;;23.65;4.60;;;;;;;6.78;100.00;99505.53;5103449;28;20048;-70
2022/11/23 03:39:24;;;;;;;24.95;4.70;;;;;;;6.78;100.00;99513.41;5104641;28;20028;-69
2022/11/23 03:41:50;;;;;;;20.65;4.13;;;;;;;6.73;100.00;99504.66;5102764;28;20033;-73
2022/11/23 03:44:15;;;;;;;20.85;4.50;;;;;;;6.73;100.00;99512.56;5105018;28;20027;-76
2022/11/23 03:46:40;;;;;;;21.52;4.20;;;;;;;6.74;100.00;99510.78;5102082;28;20028;-76
2022/11/23 03:49:06;;;;;;;21.98;4.93;;;;;;;6.79;100.00;99512.53;5103177;28;20142;-69
2022/11/23 03:51:31;;;;;;;21.05;4.32;;;;;;;6.78;100.00;99505.53;5105008;28;20118;-67
2022/11/23 03:53:56;;;;;;;21.23;4.20;;;;;;;6.77;100.00;99505.53;5102578;28;20020;-73
2022/11/23 03:56:22;;;;;;;21.20;4.90;;;;;;;6.76;100.00;99501.16;5103407;28;20043;-76
2022/11/23 03:58:47;;;;;;;22.33;4.60;;;;;;;6.72;100.00;99502.06;5104027;28;20031;-70
2022/11/23 04:01:12;;;;;;;22.00;4.32;;;;;;;6.70;100.00;99509.03;5102113;28;20028;-74
2022/11/23 04:03:38;;;;;;;21.13;4.40;;;;;;;6.70;100.00;99507.31;5104878;28;20044;-72
2022/11/23 04:06:03;;;;;;;23.00;4.20;;;;;;;6.78;100.00;99510.78;5101718;28;20059;-71
2022/11/23 04:08:28;;;;;;;21.98;4.32;;;;;;;6.78;100.00;99512.53;5104245;28;20032;-69
2022/11/23 04:10:58;;;;;;;21.77;4.30;;;;;;;6.78;100.00;99523.03;5102621;28;20039;-69
2022/11/23 04:13:23;;;;;;;23.30;4.10;;;;;;;6.81;100.00;99517.78;5103701;28;20028;-70
2022/11/23 04:15:49;;;;;;;22.05;4.15;;;;;;;6.82;100.00;99514.28;5103520;28;20114;-67
2022/11/23 04:18:14;;;;;;;21.20;4.28;;;;;;;6.82;100.00;99514.28;5101930;28;20063;-67
2022/11/23 04:20:39;;;;;;;22.00;4.40;;;;;;;6.82;100.00;99514.28;5104312;28;20024;-67
2022/11/23 04:23:05;;;;;;;20.88;4.22;;;;;;;6.86;100.00;99510.78;5101561;28;20439;-67
2022/11/23 04:25:30;;;;;;;22.42;4.18;;;;;;;6.84;100.00;99520.41;5097392;28;20413;-67
2022/11/23 04:27:56;;;;;;;22.88;4.20;;;;;;;6.88;100.00;99519.53;5103330;28;20027;-68
2022/11/23 04:30:21;;;;;;;22.27;4.60;;;;;;;6.87;100.00;99509.88;5101141;28;20027;-67
2022/11/23 04:32:46;;;;;;;21.75;4.35;;;;;;;6.86;100.00;99505.53;5102941;28;20470;-68
2022/11/23 04:35:12;;;;;;;19.52;4.28;;;;;;;6.88;100.00;99502.91;5103624;28;20477;-67
2022/11/23 04:37:37;;;;;;;20.92;4.07;;;;;;;6.82;100.00;99506.41;5101389;28;20024;-67
2022/11/23 04:40:03;;;;;;;22.98;4.55;;;;;;;6.85;100.00;99503.78;5100421;28;20035;-67
2022/11/23 04:42:28;;;;;;;21.25;4.20;;;;;;;6.84;100.00;99512.53;5104607;28;20102;-67
2022/11/23 04:44:54;;;;;;;22.73;4.47;;;;;;;6.82;100.00;99514.28;5101390;28;20149;-67
2022/11/23 04:47:19;;;;;;;20.98;4.45;;;;;;;6.88;100.00;99518.66;5103876;28;20123;-68
2022/11/23 04:49:44;;;;;;;23.77;4.18;;;;;;;6.87;100.00;99512.50;5102483;28;20044;-67
2022/11/23 04:52:10;;;;;;;21.58;4.13;;;;;;;6.88;100.00;99524.78;5102751;28;20032;-67
2022/11/23 04:54:35;;;;;;;23.27;4.10;;;;;;;6.82;100.00;99513.44;5103433;28;20032;-68
2022/11/23 04:57:00;;;;;;;21.90;3.75;;;;;;;6.72;100.00;99517.81;5101583;28;20138;-67
2022/11/23 04:59:26;;;;;;;22.90;4.30;;;;;;;6.61;100.00;99515.16;5104363;28;20031;-68
2022/11/23 05:01:51;;;;;;;24.65;4.22;;;;;;;6.60;100.00;99510.81;5101399;28;20032;-69
2022/11/23 05:04:18;;;;;;;22.80;4.00;;;;;;;6.49;100.00;99509.94;5103400;28;20055;-67
2022/11/23 05:06:44;;;;;;;23.90;4.28;;;;;;;6.45;100.00;99519.56;5102268;28;20023;-67
2022/11/23 05:09:09;;;;;;;22.50;4.13;;;;;;;6.40;100.00;99511.69;5102888;28;20036;-66
2022/11/23 05:11:35;;;;;;;21.58;4.38;;;;;;;6.37;100.00;99510.81;5102996;28;20045;-67
2022/11/23 05:14:00;;;;;;;23.83;4.88;;;;;;;6.30;100.00;99506.44;5101689;28;20028;-67
2022/11/23 05:16:25;;;;;;;23.90;4.50;;;;;;;6.23;100.00;99506.44;5104366;28;20112;-68
2022/11/23 05:18:51;;;;;;;21.55;3.90;;;;;;;6.21;100.00;99505.53;5100799;28;20032;-67
2022/11/23 05:21:16;;;;;;;21.75;4.18;;;;;;;6.24;100.00;99502.06;5103510;28;20027;-67
2022/11/23 05:23:41;;;;;;;24.50;4.57;;;;;;;6.25;100.00;99503.81;5102077;28;20030;-67
2022/11/23 05:26:07;;;;;;;24.33;4.65;;;;;;;6.28;100.00;99502.06;5102059;28;20356;-67
2022/11/23 05:28:32;;;;;;;23.67;4.97;;;;;;;6.28;100.00;99502.06;5103640;28;20063;-67
2022/11/23 05:30:57;;;;;;;22.88;4.63;;;;;;;6.27;100.00;99507.31;5100694;28;20114;-69
2022/11/23 05:33:23;;;;;;;24.52;4.68;;;;;;;6.26;100.00;99509.06;5104107;28;20114;-67
2022/11/23 05:35:48;;;;;;;23.50;4.75;;;;;;;6.28;100.00;99503.81;5101331;28;20028;-67
2022/11/23 05:38:13;;;;;;;23.08;4.68;;;;;;;6.25;100.00;99499.44;5103638;28;20056;-67
2022/11/23 05:40:38;;;;;;;23.67;5.13;;;;;;;6.23;100.00;99514.31;5086118;28;20035;-66
2022/11/23 05:43:04;;;;;;;23.02;4.30;;;;;;;6.20;100.00;99503.78;5105933;28;20028;-67
2022/11/23 05:45:29;;;;;;;23.42;4.68;;;;;;;6.22;100.00;99507.31;5105674;28;20032;-67
2022/11/23 05:47:57;;;;;;;24.63;5.20;;;;;;;6.15;100.00;99509.94;5105922;28;20106;-67
2022/11/23 05:50:25;;;;;;;24.88;5.00;;;;;;;6.14;100.00;99511.66;5104631;28;20028;-67
2022/11/23 05:52:50;;;;;;;23.58;4.78;;;;;;;6.15;100.00;99507.31;5107026;28;20031;-67
2022/11/23 05:55:15;;;;;;;24.35;4.55;;;;;;;6.14;100.00;99516.91;5104156;28;20372;-66
2022/11/23 05:57:41;;;;;;;23.60;4.88;;;;;;;6.08;100.00;99509.91;5107441;28;20016;-67
2022/11/23 06:00:11;;;;;;;25.88;5.55;;;;;;;6.06;100.00;99505.56;5104959;28;20035;-67
2022/11/23 06:02:37;;;;;;;25.48;4.93;;;;;;;6.04;100.00;99520.41;5106424;28;20091;-67
2022/11/23 06:05:02;;;;;;;25.55;4.90;;;;;;;6.08;100.00;99514.28;5105113;28;20062;-67
2022/11/23 06:07:28;;;;;;;24.15;4.53;;;;;;;6.06;100.00;99521.28;5105350;28;20028;-67
2022/11/23 06:09:53;;;;;;;24.98;4.90;;;;;;;6.08;100.00;99509.03;5106553;27;20028;-68
2022/11/23 06:12:19;;;;;;;23.95;4.90;;;;;;;6.16;100.00;99511.66;5103727;28;20070;-68
2022/11/23 06:14:44;;;;;;;20.60;4.65;;;;;;;6.25;100.00;99515.19;5105835;28;20038;-67
2022/11/23 06:17:09;;;;;;;21.98;4.95;;;;;;;6.25;100.00;99516.94;5102898;28;20043;-67
2022/11/23 06:19:35;;;;;;;25.60;5.20;;;;;;;6.24;100.00;99520.44;5105771;28;20020;-67
2022/11/23 06:22:00;;;;;;;23.40;5.03;;;;;;;6.30;100.00;99515.19;5105107;28;20032;-67
2022/11/23 06:24:25;;;;;;;28.08;5.07;;;;;;;6.28;100.00;99517.81;5104520;28;20069;-67
2022/11/23 06:26:51;;;;;;;24.08;4.63;;;;;;;6.29;100.00;99521.28;5106455;28;20027;-67
2022/11/23 06:29:18;;;;;;;26.75;5.07;;;;;;;6.29;100.00;99518.66;5103295;28;20028;-67
2022/11/23 06:31:44;;;;;;;24.25;5.10;;;;;;;6.33;100.00;99527.44;5097887;28;20028;-68
2022/11/23 06:34:09;;;;;;;24.77;4.93;;;;;;;6.30;100.00;99524.81;5106248;28;20076;-67
2022/11/23 06:36:34;;;;;;;24.05;4.68;;;;;;;6.40;100.00;99534.44;5104236;27;20398;-66
2022/11/23 06:39:00;;;;;;;23.65;4.45;;;;;;;6.38;100.00;99523.06;5104991;28;20036;-66
2022/11/23 06:41:25;;;;;;;24.67;4.65;;;;;;;6.36;100.00;99530.91;5105427;28;20035;-66
2022/11/23 06:43:50;;;;;;;24.02;5.07;;;;;;;6.35;100.00;99530.91;5104045;28;20020;-77
2022/11/23 06:46:16;;;;;;;23.85;4.45;;;;;;;6.28;100.00;99533.56;5106110;28;20034;-69
2022/11/23 06:48:43;;;;;;;24.33;4.97;;;;;;;6.32;100.00;99523.06;5103896;28;20019;-71
2022/11/23 06:51:09;;;;;;;23.20;4.47;;;;;;;6.28;100.00;99528.31;5102070;28;20478;-68
2022/11/23 06:53:34;;;;;;;23.73;4.32;;;;;;;6.34;100.00;99534.44;5105982;28;20031;-75
2022/11/23 06:56:00;;;;;;;22.52;4.20;;;;;;;6.33;100.00;99535.31;5103701;28;20023;-74
2022/11/23 06:58:25;;;;;;;24.65;4.60;;;;;;;6.33;100.00;99536.16;5104709;28;20055;-74
2022/11/23 07:00:51;;;;;;;20.75;4.00;;;;;;;6.32;100.00;99549.31;5104663;28;20023;-68
2022/11/23 07:03:21;;;;;;;24.42;4.57;;;;;;;6.35;100.00;99549.31;5102881;28;20074;-73
2022/11/23 07:05:47;;;;;;;24.27;4.70;;;;;;;6.31;100.00;99560.69;5105684;28;20031;-70
2022/11/23 07:08:12;;;;;;;20.30;4.20;;;;;;;6.34;100.00;99558.06;5093740;28;20043;-70
2022/11/23 07:10:38;;;;;;;24.13;4.18;;;;;;;6.25;100.00;99559.78;5094177;28;20057;-67
2022/11/23 07:13:04;;;;;;;22.33;4.18;;;;;;;6.21;100.00;99563.28;5096455;28;20421;-67
2022/11/23 07:15:30;;;;;;;21.70;4.15;;;;;;;6.19;100.00;99574.66;5092045;28;20032;-66
2022/11/23 07:17:55;;;;;;;22.27;3.90;;;;;;;6.15;100.00;99573.78;5097736;28;20028;-68
2022/11/23 07:20:21;;;;;;;21.77;4.15;;;;;;;6.16;100.00;99572.91;5098697;28;20056;-68
2022/11/23 07:22:46;;;;;;;22.75;4.40;;;;;;;6.13;100.00;99575.53;5096002;28;20111;-69
2022/11/23 07:25:17;;;;;;;23.05;4.20;;;;;;;6.10;100.00;99586.00;5100014;28;20404;-66
2022/11/23 07:27:43;;;;;;;23.50;5.07;;;;;;;6.10;100.00;99583.38;5097257;28;20023;-67
2022/11/23 07:30:09;;;;;;;24.30;4.60;;;;;;;6.00;100.00;99579.88;5096016;28;20032;-66
2022/11/23 07:32:34;;;;;;;23.33;4.30;;;;;;;5.93;100.00;99578.06;5095904;28;20097;-66
2022/11/23 07:34:59;;;;;;;21.63;4.22;;;;;;;5.96;100.00;99588.56;5096861;28;20055;-66
2022/11/23 07:37:25;;;;;;;23.52;4.03;;;;;;;5.92;100.00;99592.91;5100461;28;20485;-66
2022/11/23 07:39:51;;;;;;;22.83;4.00;;;;;;;5.98;100.00;99592.09;5096127;28;20028;-67
2022/11/23 07:42:18;;;;;;;20.55;4.03;;;;;;;5.90;100.00;99599.91;5098768;28;20020;-67
2022/11/23 07:44:44;;;;;;;22.38;4.10;;;;;;;5.87;100.00;99593.78;5102714;28;20039;-68
2022/11/23 07:47:12;;;;;;;23.30;4.03;;;;;;;5.84;100.00;99605.13;5096518;28;20032;-65
2022/11/23 07:49:38;;;;;;;20.80;3.63;;;;;;;5.87;100.00;99607.78;5095117;28;20032;-68
2022/11/23 07:52:03;;;;;;;22.10;4.20;;;;;;;5.93;100.00;99614.78;5098631;28;20043;-66
2022/11/23 07:54:28;;;;;;;20.45;4.05;;;;;;;5.97;100.00;99613.97;5097137;28;20031;-66
2022/11/23 07:56:54;;;;;;;21.50;3.88;;;;;;;6.00;100.00;99608.72;5094877;28;20055;-67
2022/11/23 07:59:19;;;;;;;23.08;4.10;;;;;;;6.03;100.00;99615.72;5099786;28;20119;-67
2022/11/23 08:01:45;;;;;;;22.83;3.90;;;;;;;6.02;100.00;99620.09;5097709;28;20035;-66
2022/11/23 08:04:10;;;;;;;24.20;4.20;;;;;;;6.04;100.00;99621.00;5094636;28;20521;-67
2022/11/23 08:06:35;;;;;;;22.80;4.10;;;;;;;6.11;100.00;99614.84;5097239;28;20398;-67
2022/11/23 08:09:01;;;;;;;22.38;4.00;;;;;;;6.19;100.00;99617.53;5097307;28;20474;-66
2022/11/23 08:11:26;;;;;;;21.52;3.75;;;;;;;6.28;100.00;99611.44;5099052;28;20028;-67
2022/11/23 08:13:51;;;;;;;21.58;4.35;;;;;;;6.40;100.00;99615.81;5098772;28;20047;-67
2022/11/23 08:16:18;;;;;;;20.98;4.03;;;;;;;6.52;100.00;99615.81;5097281;28;20147;-67
2022/11/23 08:18:44;;;;;;;21.88;4.28;;;;;;;6.53;100.00;99616.72;5091724;28;20013;-68
2022/11/23 08:21:09;;;;;;;22.02;3.97;;;;;;;6.62;100.00;99621.97;5092865;28;20514;-67
2022/11/23 08:23:34;;;;;;;20.05;3.63;;;;;;;6.70;100.00;99609.72;5094306;28;20028;-67
2022/11/23 08:26:02;;;;;;;21.23;4.25;;;;;;;6.77;100.00;99614.13;5095194;28;20035;-67
2022/11/23 08:28:27;;;;;;;23.45;4.10;;;;;;;6.77;100.00;99613.22;5101708;28;20067;-67
2022/11/23 08:30:53;;;;;;;21.27;3.88;;;;;;;6.82;100.00;99619.38;5100262;28;20055;-67
2022/11/23 08:33:18;;;;;;;21.20;3.95;;;;;;;6.86;100.00;99622.84;5096398;28;20063;-68
2022/11/23 08:35:44;;;;;;;20.05;3.75;;;;;;;6.97;100.00;99624.63;5097063;28;20029;-68
2022/11/23 08:38:09;;;;;;;21.05;3.60;;;;;;;7.08;100.00;99626.38;5102091;28;20056;-71
2022/11/23 08:40:36;;;;;;;17.10;3.33;;;;;;;7.17;100.00;99623.72;5097936;28;20046;-73
2022/11/23 08:43:01;;;;;;;22.40;4.03;;;;;;;7.18;100.00;99633.38;5095353;28;20055;-70
2022/11/23 08:45:27;;;;;;;19.23;3.60;;;;;;;7.26;100.00;99638.59;5103071;28;20052;-72
2022/11/23 08:47:54;;;;;;;20.58;3.78;;;;;;;7.23;100.00;99650.00;5102641;28;20058;-68
2022/11/23 08:50:20;;;;;;;21.30;4.00;;;;;;;7.13;100.00;99633.34;5101570;28;20032;-75
2022/11/23 08:52:46;;;;;;;23.55;4.40;;;;;;;7.20;100.00;99623.72;5103042;28;20051;-74
2022/11/23 08:55:11;;;;;;;22.50;3.83;;;;;;;7.31;100.00;99629.84;5101569;28;20067;-74
2022/11/23 08:57:37;;;;;;;20.75;4.03;;;;;;;7.35;100.00;99627.19;5099714;28;20054;-75
2022/11/23 09:00:03;;;;;;;20.73;3.67;;;;;;;7.47;100.00;99632.41;5104220;28;20026;-75
2022/11/23 09:02:28;;;;;;;21.38;4.10;;;;;;;7.57;100.00;99630.66;5100564;28;20031;-68
2022/11/23 09:04:54;;;;;;;19.00;3.53;;;;;;;7.67;100.00;99619.22;5104077;28;20100;-68
2022/11/23 09:07:19;;;;;;;21.02;3.83;;;;;;;7.74;100.00;99623.59;5101813;28;20065;-68
2022/11/23 09:09:45;;;;;;;20.85;3.55;;;;;;;7.74;100.00;99618.31;5102634;28;20448;-68
2022/11/23 09:12:10;;;;;;;20.90;4.00;;;;;;;7.71;100.00;99622.72;5103152;28;20450;-68
2022/11/23 09:14:35;;;;;;;20.73;3.88;;;;;;;7.67;100.00;99622.75;5104282;28;20028;-68
2022/11/23 09:17:01;;;;;;;19.77;4.00;;;;;;;7.70;100.00;99621.84;5108203;28;20020;-69
2022/11/23 09:19:27;;;;;;;19.83;3.63;;;;;;;7.88;100.00;99620.00;5100565;28;20027;-69
2022/11/23 09:21:53;;;;;;;20.55;3.65;;;;;;;8.07;100.00;99612.91;5108337;28;20055;-68
2022/11/23 09:24:18;;;;;;;20.23;3.47;;;;;;;8.17;100.00;99615.50;5105179;28;20036;-68
2022/11/23 09:26:44;;;;;;;19.83;3.45;;;;;;;7.99;100.00;99611.22;5107396;28;20548;-68
2022/11/23 09:29:09;;;;;;;17.98;3.30;;;;;;;8.05;100.00;99597.13;5106137;28;20028;-67
2022/11/23 09:31:35;;;;;;;20.92;3.47;;;;;;;8.09;100.00;99600.63;5105920;28;20032;-68
2022/11/23 09:34:00;;;;;;;20.23;3.75;;;;;;;8.08;100.00;99594.50;5107187;28;20462;-68
2022/11/23 09:36:26;;;;;;;19.30;3.45;;;;;;;8.12;100.00;99590.94;5103023;28;20109;-68
2022/11/23 09:38:51;;;;;;;20.63;3.63;;;;;;;8.09;100.00;99587.47;5107024;28;20028;-68
2022/11/23 09:41:52;;;;;;;20.00;3.72;;;;;;;8.28;100.00;99591.72;5104764;28;20505;-68
2022/11/23 09:44:51;;;;;;;19.48;3.60;;;;;;;8.47;100.00;99587.25;5106962;28;20035;-68
2022/11/23 09:47:37;;;;;;;20.10;3.60;;;;;;;8.61;100.00;99584.53;5106104;28;20317;-69
2022/11/23 09:50:05;;;;;;;17.77;3.40;;;;;;;8.70;100.00;99576.53;5102993;28;20032;-68
2022/11/23 09:52:32;;;;;;;18.92;3.40;;;;;;;8.63;100.00;99574.84;5106736;28;20027;-75
2022/11/23 09:55:02;;;;;;;18.05;3.42;;;;;;;8.46;100.00;99571.47;5104587;28;20024;-72
2022/11/23 09:57:31;;;;;;;19.33;3.45;;;;;;;8.41;100.00;99570.59;5106724;28;20024;-76
2022/11/23 10:00:01;;;;;;;17.95;3.22;;;;;;;8.40;100.00;99563.56;5104318;28;20020;-75
2022/11/23 10:02:30;;;;;;;20.02;3.60;;;;;;;8.55;100.00;99555.63;5106818;28;20068;-75
2022/11/23 10:04:58;;;;;;;20.20;3.40;;;;;;;8.78;100.00;99565.97;5103785;28;20105;-71
2022/11/23 10:07:45;;;;;;;19.52;3.40;;;;;;;8.81;100.00;99546.59;5107152;28;20065;-69
2022/11/23 10:10:25;;;;;;;19.88;3.35;;;;;;;8.99;100.00;99556.09;5103953;28;20032;-74
2022/11/23 10:13:02;;;;;;;18.38;3.25;;;;;;;9.14;100.00;99561.22;5091494;28;20067;-70
2022/11/23 10:16:16;;;;;;;17.52;3.35;;;;;;;9.21;100.00;99549.72;5097457;28;20096;-72
2022/11/23 10:18:50;;;;;;;19.27;3.30;;;;;;;9.60;100.00;99549.28;5080527;28;20067;-78
2022/11/23 10:21:21;;;;;;;17.70;2.90;;;;;;;9.81;100.00;99552.53;5097050;28;20050;-74
2022/11/23 10:23:55;;;;;;;17.17;3.00;;;;;;;10.05;100.00;99541.66;5100997;28;20032;-74
2022/11/23 10:26:27;;;;;;;19.35;3.10;;;;;;;10.50;100.00;99537.47;5097425;28;20023;-73
2022/11/23 10:28:54;;;;;;;18.42;3.05;;;;;;;10.71;100.00;99547.72;5101742;28;20028;-72
2022/11/23 10:31:24;;;;;;;19.63;3.30;;;;;;;10.87;100.00;99531.59;5095268;28;20057;-74
2022/11/23 10:34:11;;;;;;;18.15;3.17;;;;;;;11.14;100.00;99541.66;5100040;28;20040;-75
2022/11/23 10:36:38;;;;;;;17.30;3.00;;;;;;;11.71;100.00;99538.78;5099276;28;20020;-73
2022/11/23 10:39:15;;;;;;;18.80;3.20;;;;;;;12.12;100.00;99540.56;5100424;28;20059;-72
2022/11/23 10:41:42;;;;;;;17.08;3.00;;;;;;;12.41;100.00;99538.13;5099610;28;20474;-72
2022/11/23 10:44:17;;;;;;;17.23;3.00;;;;;;;12.62;100.00;99547.38;5097755;28;20043;-78
2022/11/23 10:46:43;;;;;;;15.73;2.70;;;;;;;13.22;100.00;99536.09;5098953;28;20027;-77
2022/11/23 10:49:08;;;;;;;17.00;3.03;;;;;;;13.40;100.00;99533.88;5098555;28;20035;-73
2022/11/23 10:51:34;;;;;;;17.80;3.08;;;;;;;13.27;100.00;99543.06;5097339;28;20036;-72
2022/11/23 10:54:03;;;;;;;15.30;2.95;;;;;;;12.76;100.00;99533.78;5100063;28;20028;-74
2022/11/23 10:56:29;;;;;;;15.23;2.75;;;;;;;11.78;100.00;99533.34;5099470;28;20020;-73
2022/11/23 10:58:55;;;;;;;18.30;3.10;;;;;;;10.96;100.00;99515.56;5100849;28;20031;-71
2022/11/23 11:01:23;;;;;;;15.20;2.85;;;;;;;10.69;100.00;99525.72;5098574;28;20028;-70
2022/11/23 11:03:49;;;;;;;16.63;2.90;;;;;;;11.42;100.00;99519.09;5100354;28;20434;-71
2022/11/23 11:06:27;;;;;;;15.05;2.70;;;;;;;11.59;100.00;99516.09;5101451;28;20020;-71
2022/11/23 11:09:16;;;;;;;14.30;2.80;;;;;;;12.26;100.00;99508.47;5099308;28;20092;-70
2022/11/23 11:11:46;;;;;;;15.15;2.88;;;;;;;12.98;100.00;99512.88;5098393;28;20032;-71
2022/11/23 11:14:16;;;;;;;17.70;2.97;;;;;;;13.42;100.00;99508.13;5105977;28;20397;-76
2022/11/23 11:16:49;;;;;;;16.35;3.03;;;;;;;13.04;100.00;99502.94;5102891;28;20031;-77
2022/11/23 11:19:28;;;;;;;16.48;2.85;;;;;;;12.26;100.00;99492.56;5105270;28;20378;-78
2022/11/23 11:21:54;;;;;;;18.33;2.90;;;;;;;11.56;100.00;99506.44;5104278;28;20027;-73
2022/11/23 11:24:23;;;;;;;17.08;2.90;;;;;;;11.14;100.00;99499.34;5104494;28;20032;-70